sensor_id;sensor_type;location;lat;lon;timestamp;P1;durP1;ratioP1;P2;durP2;ratioP2
12892;SDS011;6514;48.606;9.222;2024-02-14T00:00:48;20.87;;;10.67;;
12892;SDS011;6514;48.606;9.222;2024-02-14T00:03:15;9.83;;;6.53;;
12892;SDS011;6514;48.606;9.222;2024-02-14T00:05:44;11.03;;;6.07;;
12892;SDS011;6514;48.606;9.222;2024-02-14T00:08:11;8.70;;;5.57;;
12892;SDS011;6514;48.606;9.222;2024-02-14T00:10:39;7.93;;;4.87;;
12892;SDS011;6514;48.606;9.222;2024-02-14T00:13:08;8.70;;;5.07;;
12892;SDS011;6514;48.606;9.222;2024-02-14T00:15:35;6.80;;;4.07;;
12892;SDS011;6514;48.606;9.222;2024-02-14T00:18:02;6.13;;;4.60;;
12892;SDS011;6514;48.606;9.222;2024-02-14T00:20:30;5.40;;;4.37;;
12892;SDS011;6514;48.606;9.222;2024-02-14T00:22:58;8.37;;;4.60;;
12892;SDS011;6514;48.606;9.222;2024-02-14T00:25:26;9.03;;;5.47;;
12892;SDS011;6514;48.606;9.222;2024-02-14T00:27:55;6.70;;;4.80;;
12892;SDS011;6514;48.606;9.222;2024-02-14T00:30:22;6.63;;;4.43;;
12892;SDS011;6514;48.606;9.222;2024-02-14T00:32:50;7.47;;;4.47;;
12892;SDS011;6514;48.606;9.222;2024-02-14T00:35:17;8.00;;;4.17;;
12892;SDS011;6514;48.606;9.222;2024-02-14T00:37:44;4.77;;;4.20;;
12892;SDS011;6514;48.606;9.222;2024-02-14T00:40:12;6.47;;;3.77;;
12892;SDS011;6514;48.606;9.222;2024-02-14T00:42:39;4.80;;;3.93;;
12892;SDS011;6514;48.606;9.222;2024-02-14T00:45:07;5.93;;;3.67;;
12892;SDS011;6514;48.606;9.222;2024-02-14T00:47:34;4.63;;;3.33;;
12892;SDS011;6514;48.606;9.222;2024-02-14T00:50:01;4.87;;;4.00;;
12892;SDS011;6514;48.606;9.222;2024-02-14T00:52:28;4.23;;;3.67;;
12892;SDS011;6514;48.606;9.222;2024-02-14T00:54:55;6.33;;;4.13;;
12892;SDS011;6514;48.606;9.222;2024-02-14T00:57:23;5.90;;;4.00;;
12892;SDS011;6514;48.606;9.222;2024-02-14T00:59:51;7.00;;;4.30;;
12892;SDS011;6514;48.606;9.222;2024-02-14T01:02:18;6.57;;;4.40;;
12892;SDS011;6514;48.606;9.222;2024-02-14T01:04:45;6.47;;;4.43;;
12892;SDS011;6514;48.606;9.222;2024-02-14T01:07:12;7.03;;;4.43;;
12892;SDS011;6514;48.606;9.222;2024-02-14T01:09:38;4.40;;;3.80;;
12892;SDS011;6514;48.606;9.222;2024-02-14T01:12:05;5.80;;;4.17;;
12892;SDS011;6514;48.606;9.222;2024-02-14T01:14:34;6.27;;;4.57;;
12892;SDS011;6514;48.606;9.222;2024-02-14T01:17:01;5.93;;;3.93;;
12892;SDS011;6514;48.606;9.222;2024-02-14T01:19:28;5.97;;;4.50;;
12892;SDS011;6514;48.606;9.222;2024-02-14T01:21:55;5.90;;;4.10;;
12892;SDS011;6514;48.606;9.222;2024-02-14T01:24:22;5.77;;;4.40;;
12892;SDS011;6514;48.606;9.222;2024-02-14T01:26:51;5.60;;;3.97;;
12892;SDS011;6514;48.606;9.222;2024-02-14T01:29:20;7.53;;;4.13;;
12892;SDS011;6514;48.606;9.222;2024-02-14T01:31:49;6.80;;;4.60;;
12892;SDS011;6514;48.606;9.222;2024-02-14T01:34:16;7.77;;;3.70;;
12892;SDS011;6514;48.606;9.222;2024-02-14T01:36:43;5.93;;;3.70;;
12892;SDS011;6514;48.606;9.222;2024-02-14T01:39:09;4.67;;;3.97;;
12892;SDS011;6514;48.606;9.222;2024-02-14T01:41:36;4.50;;;3.90;;
12892;SDS011;6514;48.606;9.222;2024-02-14T01:44:03;6.47;;;4.37;;
12892;SDS011;6514;48.606;9.222;2024-02-14T01:46:30;7.90;;;3.70;;
12892;SDS011;6514;48.606;9.222;2024-02-14T01:48:58;4.53;;;3.57;;
12892;SDS011;6514;48.606;9.222;2024-02-14T01:51:25;6.03;;;4.30;;
12892;SDS011;6514;48.606;9.222;2024-02-14T01:53:52;4.80;;;3.60;;
12892;SDS011;6514;48.606;9.222;2024-02-14T01:56:21;4.77;;;3.57;;
12892;SDS011;6514;48.606;9.222;2024-02-14T01:58:48;5.20;;;4.27;;
12892;SDS011;6514;48.606;9.222;2024-02-14T02:01:15;5.23;;;4.03;;
12892;SDS011;6514;48.606;9.222;2024-02-14T02:03:42;5.27;;;3.70;;
12892;SDS011;6514;48.606;9.222;2024-02-14T02:06:11;6.57;;;4.20;;
12892;SDS011;6514;48.606;9.222;2024-02-14T02:08:37;4.87;;;4.00;;
12892;SDS011;6514;48.606;9.222;2024-02-14T02:11:04;4.03;;;3.57;;
12892;SDS011;6514;48.606;9.222;2024-02-14T02:13:32;5.83;;;4.00;;
12892;SDS011;6514;48.606;9.222;2024-02-14T02:15:59;4.03;;;3.40;;
12892;SDS011;6514;48.606;9.222;2024-02-14T02:18:29;4.73;;;3.80;;
12892;SDS011;6514;48.606;9.222;2024-02-14T02:20:57;7.33;;;3.40;;
12892;SDS011;6514;48.606;9.222;2024-02-14T02:23:25;4.50;;;3.13;;
12892;SDS011;6514;48.606;9.222;2024-02-14T02:25:51;4.23;;;3.10;;
12892;SDS011;6514;48.606;9.222;2024-02-14T02:28:18;4.40;;;3.43;;
12892;SDS011;6514;48.606;9.222;2024-02-14T02:30:45;4.33;;;3.60;;
12892;SDS011;6514;48.606;9.222;2024-02-14T02:33:12;5.37;;;3.60;;
12892;SDS011;6514;48.606;9.222;2024-02-14T02:35:40;7.47;;;4.00;;
12892;SDS011;6514;48.606;9.222;2024-02-14T02:38:10;7.03;;;4.53;;
12892;SDS011;6514;48.606;9.222;2024-02-14T02:40:38;4.20;;;3.67;;
12892;SDS011;6514;48.606;9.222;2024-02-14T02:43:05;4.63;;;3.57;;
12892;SDS011;6514;48.606;9.222;2024-02-14T02:45:32;6.63;;;4.07;;
12892;SDS011;6514;48.606;9.222;2024-02-14T02:47:59;5.63;;;4.57;;
12892;SDS011;6514;48.606;9.222;2024-02-14T02:50:26;5.37;;;4.00;;
12892;SDS011;6514;48.606;9.222;2024-02-14T02:52:53;6.17;;;4.23;;
12892;SDS011;6514;48.606;9.222;2024-02-14T02:55:19;6.60;;;4.10;;
12892;SDS011;6514;48.606;9.222;2024-02-14T02:57:48;7.60;;;4.20;;
12892;SDS011;6514;48.606;9.222;2024-02-14T03:00:15;5.77;;;4.47;;
12892;SDS011;6514;48.606;9.222;2024-02-14T03:02:46;6.43;;;4.90;;
12892;SDS011;6514;48.606;9.222;2024-02-14T03:05:14;8.90;;;4.87;;
12892;SDS011;6514;48.606;9.222;2024-02-14T03:07:43;6.70;;;4.70;;
12892;SDS011;6514;48.606;9.222;2024-02-14T03:10:12;9.47;;;5.87;;
12892;SDS011;6514;48.606;9.222;2024-02-14T03:12:42;9.83;;;5.30;;
12892;SDS011;6514;48.606;9.222;2024-02-14T03:15:12;6.83;;;5.23;;
12892;SDS011;6514;48.606;9.222;2024-02-14T03:17:39;9.33;;;5.07;;
12892;SDS011;6514;48.606;9.222;2024-02-14T03:20:07;7.90;;;5.43;;
12892;SDS011;6514;48.606;9.222;2024-02-14T03:22:37;7.67;;;5.07;;
12892;SDS011;6514;48.606;9.222;2024-02-14T03:25:07;6.37;;;5.33;;
12892;SDS011;6514;48.606;9.222;2024-02-14T03:27:34;8.97;;;5.80;;
12892;SDS011;6514;48.606;9.222;2024-02-14T03:30:02;6.37;;;5.07;;
12892;SDS011;6514;48.606;9.222;2024-02-14T03:32:30;8.97;;;6.17;;
12892;SDS011;6514;48.606;9.222;2024-02-14T03:34:58;9.63;;;5.47;;
12892;SDS011;6514;48.606;9.222;2024-02-14T03:37:25;6.43;;;5.60;;
12892;SDS011;6514;48.606;9.222;2024-02-14T03:39:52;5.47;;;4.20;;
12892;SDS011;6514;48.606;9.222;2024-02-14T03:42:19;7.27;;;3.97;;
12892;SDS011;6514;48.606;9.222;2024-02-14T03:44:46;6.67;;;3.50;;
12892;SDS011;6514;48.606;9.222;2024-02-14T03:47:12;6.93;;;3.53;;
12892;SDS011;6514;48.606;9.222;2024-02-14T03:49:41;4.73;;;3.60;;
12892;SDS011;6514;48.606;9.222;2024-02-14T03:52:07;4.93;;;3.40;;
12892;SDS011;6514;48.606;9.222;2024-02-14T03:54:35;5.00;;;3.17;;
12892;SDS011;6514;48.606;9.222;2024-02-14T03:57:02;4.87;;;3.70;;
12892;SDS011;6514;48.606;9.222;2024-02-14T03:59:35;5.50;;;3.47;;
12892;SDS011;6514;48.606;9.222;2024-02-14T04:02:03;4.67;;;3.00;;
12892;SDS011;6514;48.606;9.222;2024-02-14T04:04:32;5.50;;;3.10;;
12892;SDS011;6514;48.606;9.222;2024-02-14T04:07:00;4.67;;;3.17;;
12892;SDS011;6514;48.606;9.222;2024-02-14T04:09:28;4.10;;;3.20;;
12892;SDS011;6514;48.606;9.222;2024-02-14T04:11:55;6.23;;;3.10;;
12892;SDS011;6514;48.606;9.222;2024-02-14T04:14:21;11.07;;;5.60;;
12892;SDS011;6514;48.606;9.222;2024-02-14T04:16:48;13.30;;;7.97;;
12892;SDS011;6514;48.606;9.222;2024-02-14T04:19:15;8.23;;;4.70;;
12892;SDS011;6514;48.606;9.222;2024-02-14T04:21:42;8.70;;;4.77;;
12892;SDS011;6514;48.606;9.222;2024-02-14T04:24:11;7.10;;;4.53;;
12892;SDS011;6514;48.606;9.222;2024-02-14T04:26:37;10.30;;;5.67;;
12892;SDS011;6514;48.606;9.222;2024-02-14T04:29:04;7.17;;;5.23;;
12892;SDS011;6514;48.606;9.222;2024-02-14T04:31:31;5.60;;;4.90;;
12892;SDS011;6514;48.606;9.222;2024-02-14T04:33:58;5.73;;;4.27;;
12892;SDS011;6514;48.606;9.222;2024-02-14T04:36:25;6.93;;;4.23;;
12892;SDS011;6514;48.606;9.222;2024-02-14T04:38:54;5.63;;;4.10;;
12892;SDS011;6514;48.606;9.222;2024-02-14T04:41:24;5.03;;;4.10;;
12892;SDS011;6514;48.606;9.222;2024-02-14T04:43:51;5.73;;;4.17;;
12892;SDS011;6514;48.606;9.222;2024-02-14T04:46:18;5.03;;;3.50;;
12892;SDS011;6514;48.606;9.222;2024-02-14T04:48:47;8.53;;;4.27;;
12892;SDS011;6514;48.606;9.222;2024-02-14T04:51:14;8.97;;;6.20;;
12892;SDS011;6514;48.606;9.222;2024-02-14T04:53:41;8.00;;;5.00;;
12892;SDS011;6514;48.606;9.222;2024-02-14T04:56:07;9.07;;;4.63;;
12892;SDS011;6514;48.606;9.222;2024-02-14T04:58:35;6.40;;;4.40;;
12892;SDS011;6514;48.606;9.222;2024-02-14T05:01:02;4.27;;;3.57;;
12892;SDS011;6514;48.606;9.222;2024-02-14T05:03:29;5.43;;;3.90;;
12892;SDS011;6514;48.606;9.222;2024-02-14T05:05:56;6.43;;;3.43;;
12892;SDS011;6514;48.606;9.222;2024-02-14T05:08:24;4.03;;;3.03;;
12892;SDS011;6514;48.606;9.222;2024-02-14T05:10:50;6.53;;;4.03;;
12892;SDS011;6514;48.606;9.222;2024-02-14T05:13:17;5.90;;;3.97;;
12892;SDS011;6514;48.606;9.222;2024-02-14T05:15:46;5.53;;;3.50;;
12892;SDS011;6514;48.606;9.222;2024-02-14T05:18:12;5.23;;;3.53;;
12892;SDS011;6514;48.606;9.222;2024-02-14T05:20:41;7.53;;;4.33;;
12892;SDS011;6514;48.606;9.222;2024-02-14T05:23:08;6.50;;;4.37;;
12892;SDS011;6514;48.606;9.222;2024-02-14T05:25:36;7.57;;;4.87;;
12892;SDS011;6514;48.606;9.222;2024-02-14T05:28:04;7.17;;;4.50;;
12892;SDS011;6514;48.606;9.222;2024-02-14T05:30:31;7.13;;;4.40;;
12892;SDS011;6514;48.606;9.222;2024-02-14T05:33:00;6.50;;;4.17;;
12892;SDS011;6514;48.606;9.222;2024-02-14T05:35:27;6.90;;;4.07;;
12892;SDS011;6514;48.606;9.222;2024-02-14T05:37:54;8.80;;;4.00;;
12892;SDS011;6514;48.606;9.222;2024-02-14T05:40:21;7.10;;;4.07;;
12892;SDS011;6514;48.606;9.222;2024-02-14T05:42:49;7.23;;;4.37;;
12892;SDS011;6514;48.606;9.222;2024-02-14T05:45:16;5.60;;;4.00;;
12892;SDS011;6514;48.606;9.222;2024-02-14T05:47:43;7.97;;;4.93;;
12892;SDS011;6514;48.606;9.222;2024-02-14T05:50:11;8.97;;;6.40;;
12892;SDS011;6514;48.606;9.222;2024-02-14T05:52:38;11.87;;;6.80;;
12892;SDS011;6514;48.606;9.222;2024-02-14T05:55:07;12.27;;;6.83;;
12892;SDS011;6514;48.606;9.222;2024-02-14T05:57:34;10.47;;;7.03;;
12892;SDS011;6514;48.606;9.222;2024-02-14T06:00:01;7.07;;;5.50;;
12892;SDS011;6514;48.606;9.222;2024-02-14T06:02:31;8.77;;;5.90;;
12892;SDS011;6514;48.606;9.222;2024-02-14T06:04:57;6.03;;;4.87;;
12892;SDS011;6514;48.606;9.222;2024-02-14T06:07:26;7.27;;;5.43;;
12892;SDS011;6514;48.606;9.222;2024-02-14T06:09:53;7.53;;;4.50;;
12892;SDS011;6514;48.606;9.222;2024-02-14T06:12:20;6.20;;;4.40;;
12892;SDS011;6514;48.606;9.222;2024-02-14T06:14:47;5.43;;;4.37;;
12892;SDS011;6514;48.606;9.222;2024-02-14T06:17:15;6.90;;;3.90;;
12892;SDS011;6514;48.606;9.222;2024-02-14T06:19:42;5.30;;;3.90;;
12892;SDS011;6514;48.606;9.222;2024-02-14T06:22:11;5.83;;;3.67;;
12892;SDS011;6514;48.606;9.222;2024-02-14T06:24:39;6.70;;;4.10;;
12892;SDS011;6514;48.606;9.222;2024-02-14T06:27:06;6.87;;;3.50;;
12892;SDS011;6514;48.606;9.222;2024-02-14T06:29:33;5.10;;;3.30;;
12892;SDS011;6514;48.606;9.222;2024-02-14T06:32:00;6.60;;;3.43;;
12892;SDS011;6514;48.606;9.222;2024-02-14T06:34:27;5.03;;;2.87;;
12892;SDS011;6514;48.606;9.222;2024-02-14T06:36:54;4.33;;;3.43;;
12892;SDS011;6514;48.606;9.222;2024-02-14T06:39:21;6.80;;;3.43;;
12892;SDS011;6514;48.606;9.222;2024-02-14T06:41:49;5.03;;;2.90;;
12892;SDS011;6514;48.606;9.222;2024-02-14T06:44:16;5.00;;;3.50;;
12892;SDS011;6514;48.606;9.222;2024-02-14T06:46:44;5.30;;;3.10;;
12892;SDS011;6514;48.606;9.222;2024-02-14T06:49:12;3.87;;;3.00;;
12892;SDS011;6514;48.606;9.222;2024-02-14T06:51:39;5.53;;;3.43;;
12892;SDS011;6514;48.606;9.222;2024-02-14T06:54:06;4.67;;;3.23;;
12892;SDS011;6514;48.606;9.222;2024-02-14T06:56:34;4.80;;;2.90;;
12892;SDS011;6514;48.606;9.222;2024-02-14T06:59:04;3.47;;;2.70;;
12892;SDS011;6514;48.606;9.222;2024-02-14T07:01:32;4.57;;;3.30;;
12892;SDS011;6514;48.606;9.222;2024-02-14T07:04:01;4.63;;;2.70;;
12892;SDS011;6514;48.606;9.222;2024-02-14T07:06:28;10.00;;;3.27;;
12892;SDS011;6514;48.606;9.222;2024-02-14T07:08:55;3.83;;;2.77;;
12892;SDS011;6514;48.606;9.222;2024-02-14T07:11:22;3.73;;;2.60;;
12892;SDS011;6514;48.606;9.222;2024-02-14T07:13:51;6.97;;;4.07;;
12892;SDS011;6514;48.606;9.222;2024-02-14T07:16:20;7.70;;;4.00;;
12892;SDS011;6514;48.606;9.222;2024-02-14T07:18:47;5.83;;;3.80;;
12892;SDS011;6514;48.606;9.222;2024-02-14T07:21:16;5.30;;;3.60;;
12892;SDS011;6514;48.606;9.222;2024-02-14T07:23:45;7.03;;;4.17;;
12892;SDS011;6514;48.606;9.222;2024-02-14T07:26:18;6.00;;;3.87;;
12892;SDS011;6514;48.606;9.222;2024-02-14T07:28:47;10.17;;;5.07;;
12892;SDS011;6514;48.606;9.222;2024-02-14T07:31:15;8.13;;;5.40;;
12892;SDS011;6514;48.606;9.222;2024-02-14T07:33:45;4.97;;;4.47;;
12892;SDS011;6514;48.606;9.222;2024-02-14T07:36:13;8.03;;;4.37;;
12892;SDS011;6514;48.606;9.222;2024-02-14T07:38:43;6.37;;;4.67;;
12892;SDS011;6514;48.606;9.222;2024-02-14T07:41:10;6.20;;;3.73;;
12892;SDS011;6514;48.606;9.222;2024-02-14T07:43:38;16.27;;;8.43;;
12892;SDS011;6514;48.606;9.222;2024-02-14T07:46:04;9.80;;;6.10;;
12892;SDS011;6514;48.606;9.222;2024-02-14T07:48:32;15.93;;;10.53;;
12892;SDS011;6514;48.606;9.222;2024-02-14T07:51:01;10.30;;;7.03;;
12892;SDS011;6514;48.606;9.222;2024-02-14T07:53:28;9.60;;;6.30;;
12892;SDS011;6514;48.606;9.222;2024-02-14T07:55:55;5.47;;;3.97;;
12892;SDS011;6514;48.606;9.222;2024-02-14T07:58:22;5.27;;;3.47;;
12892;SDS011;6514;48.606;9.222;2024-02-14T08:00:49;7.47;;;4.00;;
12892;SDS011;6514;48.606;9.222;2024-02-14T08:03:18;11.17;;;7.00;;
12892;SDS011;6514;48.606;9.222;2024-02-14T08:05:54;5.67;;;3.97;;
12892;SDS011;6514;48.606;9.222;2024-02-14T08:08:24;5.93;;;4.23;;
12892;SDS011;6514;48.606;9.222;2024-02-14T08:10:52;7.43;;;4.67;;
12892;SDS011;6514;48.606;9.222;2024-02-14T08:13:20;4.53;;;4.07;;
12892;SDS011;6514;48.606;9.222;2024-02-14T08:15:48;6.30;;;3.70;;
12892;SDS011;6514;48.606;9.222;2024-02-14T08:18:15;5.50;;;3.50;;
12892;SDS011;6514;48.606;9.222;2024-02-14T08:20:44;5.03;;;3.33;;
12892;SDS011;6514;48.606;9.222;2024-02-14T08:23:13;5.00;;;2.80;;
12892;SDS011;6514;48.606;9.222;2024-02-14T08:25:43;6.10;;;3.10;;
12892;SDS011;6514;48.606;9.222;2024-02-14T08:28:11;4.70;;;2.80;;
12892;SDS011;6514;48.606;9.222;2024-02-14T08:30:40;3.27;;;2.30;;
12892;SDS011;6514;48.606;9.222;2024-02-14T08:33:07;3.03;;;2.30;;
12892;SDS011;6514;48.606;9.222;2024-02-14T08:35:35;3.50;;;2.10;;
12892;SDS011;6514;48.606;9.222;2024-02-14T08:38:02;3.03;;;2.00;;
12892;SDS011;6514;48.606;9.222;2024-02-14T08:40:35;3.10;;;2.13;;
12892;SDS011;6514;48.606;9.222;2024-02-14T08:43:05;3.67;;;2.53;;
12892;SDS011;6514;48.606;9.222;2024-02-14T08:45:33;5.10;;;3.13;;
12892;SDS011;6514;48.606;9.222;2024-02-14T08:48:02;7.77;;;4.90;;
12892;SDS011;6514;48.606;9.222;2024-02-14T08:50:30;4.77;;;2.63;;
12892;SDS011;6514;48.606;9.222;2024-02-14T08:52:59;2.87;;;2.27;;
12892;SDS011;6514;48.606;9.222;2024-02-14T08:55:26;5.33;;;2.23;;
12892;SDS011;6514;48.606;9.222;2024-02-14T08:57:53;3.03;;;2.30;;
12892;SDS011;6514;48.606;9.222;2024-02-14T09:00:21;3.33;;;2.13;;
12892;SDS011;6514;48.606;9.222;2024-02-14T09:02:48;3.70;;;2.40;;
12892;SDS011;6514;48.606;9.222;2024-02-14T09:05:15;4.27;;;2.83;;
12892;SDS011;6514;48.606;9.222;2024-02-14T09:07:43;3.90;;;2.30;;
12892;SDS011;6514;48.606;9.222;2024-02-14T09:10:10;2.97;;;2.00;;
12892;SDS011;6514;48.606;9.222;2024-02-14T09:12:39;5.20;;;2.00;;
12892;SDS011;6514;48.606;9.222;2024-02-14T09:15:07;2.63;;;2.20;;
12892;SDS011;6514;48.606;9.222;2024-02-14T09:17:38;4.20;;;1.87;;
12892;SDS011;6514;48.606;9.222;2024-02-14T09:20:06;3.43;;;2.00;;
12892;SDS011;6514;48.606;9.222;2024-02-14T09:22:34;3.47;;;2.20;;
12892;SDS011;6514;48.606;9.222;2024-02-14T09:25:01;3.23;;;1.70;;
12892;SDS011;6514;48.606;9.222;2024-02-14T09:27:29;2.77;;;1.80;;
12892;SDS011;6514;48.606;9.222;2024-02-14T09:29:59;4.70;;;1.60;;
12892;SDS011;6514;48.606;9.222;2024-02-14T09:32:26;3.23;;;1.60;;
12892;SDS011;6514;48.606;9.222;2024-02-14T09:34:54;2.30;;;1.60;;
12892;SDS011;6514;48.606;9.222;2024-02-14T09:37:22;2.93;;;1.80;;
12892;SDS011;6514;48.606;9.222;2024-02-14T09:39:49;3.17;;;2.00;;
12892;SDS011;6514;48.606;9.222;2024-02-14T09:42:16;4.53;;;1.90;;
12892;SDS011;6514;48.606;9.222;2024-02-14T09:44:50;3.80;;;1.90;;
12892;SDS011;6514;48.606;9.222;2024-02-14T09:47:18;3.93;;;1.80;;
12892;SDS011;6514;48.606;9.222;2024-02-14T09:49:46;1.20;;;1.10;;
12892;SDS011;6514;48.606;9.222;2024-02-14T09:52:15;2.50;;;0.90;;
12892;SDS011;6514;48.606;9.222;2024-02-14T09:54:42;1.73;;;1.20;;
12892;SDS011;6514;48.606;9.222;2024-02-14T09:57:10;2.13;;;1.00;;
12892;SDS011;6514;48.606;9.222;2024-02-14T09:59:40;1.60;;;1.20;;
12892;SDS011;6514;48.606;9.222;2024-02-14T10:02:08;5.50;;;1.07;;
12892;SDS011;6514;48.606;9.222;2024-02-14T10:04:36;1.67;;;0.90;;
12892;SDS011;6514;48.606;9.222;2024-02-14T10:07:04;1.47;;;1.10;;
12892;SDS011;6514;48.606;9.222;2024-02-14T10:09:39;1.83;;;1.00;;
12892;SDS011;6514;48.606;9.222;2024-02-14T10:12:07;1.53;;;1.00;;
12892;SDS011;6514;48.606;9.222;2024-02-14T10:14:34;1.67;;;1.00;;
12892;SDS011;6514;48.606;9.222;2024-02-14T10:17:01;2.73;;;1.00;;
12892;SDS011;6514;48.606;9.222;2024-02-14T10:19:29;1.07;;;0.80;;
12892;SDS011;6514;48.606;9.222;2024-02-14T10:21:56;1.20;;;0.90;;
12892;SDS011;6514;48.606;9.222;2024-02-14T10:24:24;2.93;;;1.10;;
12892;SDS011;6514;48.606;9.222;2024-02-14T10:26:53;2.57;;;1.10;;
12892;SDS011;6514;48.606;9.222;2024-02-14T10:29:22;2.67;;;1.40;;
12892;SDS011;6514;48.606;9.222;2024-02-14T10:31:49;1.90;;;0.97;;
12892;SDS011;6514;48.606;9.222;2024-02-14T10:34:16;2.43;;;1.40;;
12892;SDS011;6514;48.606;9.222;2024-02-14T10:36:45;1.40;;;0.80;;
12892;SDS011;6514;48.606;9.222;2024-02-14T10:39:13;2.10;;;1.00;;
12892;SDS011;6514;48.606;9.222;2024-02-14T10:41:43;2.27;;;1.53;;
12892;SDS011;6514;48.606;9.222;2024-02-14T10:44:11;2.30;;;1.37;;
12892;SDS011;6514;48.606;9.222;2024-02-14T10:46:39;3.33;;;1.53;;
12892;SDS011;6514;48.606;9.222;2024-02-14T10:49:07;4.20;;;2.40;;
12892;SDS011;6514;48.606;9.222;2024-02-14T10:51:37;3.47;;;2.60;;
12892;SDS011;6514;48.606;9.222;2024-02-14T10:54:08;4.03;;;2.43;;
12892;SDS011;6514;48.606;9.222;2024-02-14T10:56:38;2.80;;;2.10;;
12892;SDS011;6514;48.606;9.222;2024-02-14T10:59:08;2.70;;;1.63;;
12892;SDS011;6514;48.606;9.222;2024-02-14T11:01:37;2.87;;;2.03;;
12892;SDS011;6514;48.606;9.222;2024-02-14T11:04:05;1.73;;;1.43;;
12892;SDS011;6514;48.606;9.222;2024-02-14T11:06:43;2.10;;;1.90;;
12892;SDS011;6514;48.606;9.222;2024-02-14T11:09:11;3.03;;;1.70;;
12892;SDS011;6514;48.606;9.222;2024-02-14T11:11:40;1.43;;;1.30;;
12892;SDS011;6514;48.606;9.222;2024-02-14T11:14:08;3.07;;;1.90;;
12892;SDS011;6514;48.606;9.222;2024-02-14T11:16:36;1.83;;;1.27;;
12892;SDS011;6514;48.606;9.222;2024-02-14T11:19:06;2.80;;;1.90;;
12892;SDS011;6514;48.606;9.222;2024-02-14T11:21:35;1.20;;;1.00;;
12892;SDS011;6514;48.606;9.222;2024-02-14T11:24:07;1.53;;;0.90;;
12892;SDS011;6514;48.606;9.222;2024-02-14T11:26:45;1.43;;;0.70;;
12892;SDS011;6514;48.606;9.222;2024-02-14T11:29:14;1.70;;;0.90;;
12892;SDS011;6514;48.606;9.222;2024-02-14T11:31:44;1.23;;;0.80;;
12892;SDS011;6514;48.606;9.222;2024-02-14T11:34:13;0.70;;;0.70;;
12892;SDS011;6514;48.606;9.222;2024-02-14T11:36:41;1.13;;;0.60;;
12892;SDS011;6514;48.606;9.222;2024-02-14T11:39:09;0.90;;;0.90;;
12892;SDS011;6514;48.606;9.222;2024-02-14T11:41:37;0.60;;;0.60;;
12892;SDS011;6514;48.606;9.222;2024-02-14T11:44:05;1.10;;;0.77;;
12892;SDS011;6514;48.606;9.222;2024-02-14T11:46:32;0.53;;;0.50;;
12892;SDS011;6514;48.606;9.222;2024-02-14T11:49:02;0.50;;;0.50;;
12892;SDS011;6514;48.606;9.222;2024-02-14T11:51:29;0.73;;;0.70;;
12892;SDS011;6514;48.606;9.222;2024-02-14T11:53:57;0.70;;;0.50;;
12892;SDS011;6514;48.606;9.222;2024-02-14T11:56:29;1.40;;;0.70;;
12892;SDS011;6514;48.606;9.222;2024-02-14T11:58:59;1.73;;;0.77;;
12892;SDS011;6514;48.606;9.222;2024-02-14T12:01:28;1.43;;;0.67;;
12892;SDS011;6514;48.606;9.222;2024-02-14T12:03:56;0.50;;;0.50;;
12892;SDS011;6514;48.606;9.222;2024-02-14T12:06:24;1.07;;;0.80;;
12892;SDS011;6514;48.606;9.222;2024-02-14T12:08:51;0.93;;;0.60;;
12892;SDS011;6514;48.606;9.222;2024-02-14T12:11:18;1.73;;;0.60;;
12892;SDS011;6514;48.606;9.222;2024-02-14T12:13:48;2.20;;;0.70;;
12892;SDS011;6514;48.606;9.222;2024-02-14T12:16:16;1.33;;;0.80;;
12892;SDS011;6514;48.606;9.222;2024-02-14T12:18:46;1.63;;;0.90;;
12892;SDS011;6514;48.606;9.222;2024-02-14T12:21:13;0.87;;;0.80;;
12892;SDS011;6514;48.606;9.222;2024-02-14T12:23:42;0.70;;;0.43;;
12892;SDS011;6514;48.606;9.222;2024-02-14T12:26:09;1.30;;;0.60;;
12892;SDS011;6514;48.606;9.222;2024-02-14T12:28:45;0.80;;;0.60;;
12892;SDS011;6514;48.606;9.222;2024-02-14T12:31:13;0.97;;;0.70;;
12892;SDS011;6514;48.606;9.222;2024-02-14T12:33:49;0.70;;;0.43;;
12892;SDS011;6514;48.606;9.222;2024-02-14T12:36:17;0.97;;;0.60;;
12892;SDS011;6514;48.606;9.222;2024-02-14T12:38:46;1.07;;;0.50;;
12892;SDS011;6514;48.606;9.222;2024-02-14T12:41:14;0.60;;;0.60;;
12892;SDS011;6514;48.606;9.222;2024-02-14T12:43:41;1.60;;;0.73;;
12892;SDS011;6514;48.606;9.222;2024-02-14T12:46:08;0.50;;;0.50;;
12892;SDS011;6514;48.606;9.222;2024-02-14T12:48:36;1.07;;;0.40;;
12892;SDS011;6514;48.606;9.222;2024-02-14T12:51:03;0.53;;;0.50;;
12892;SDS011;6514;48.606;9.222;2024-02-14T12:53:30;0.50;;;0.50;;
12892;SDS011;6514;48.606;9.222;2024-02-14T12:55:58;1.23;;;0.80;;
12892;SDS011;6514;48.606;9.222;2024-02-14T12:58:26;1.90;;;0.63;;
12892;SDS011;6514;48.606;9.222;2024-02-14T13:00:54;0.67;;;0.60;;
12892;SDS011;6514;48.606;9.222;2024-02-14T13:03:23;0.50;;;0.50;;
12892;SDS011;6514;48.606;9.222;2024-02-14T13:05:51;0.70;;;0.50;;
12892;SDS011;6514;48.606;9.222;2024-02-14T13:08:19;0.60;;;0.60;;
12892;SDS011;6514;48.606;9.222;2024-02-14T13:10:46;0.60;;;0.50;;
12892;SDS011;6514;48.606;9.222;2024-02-14T13:13:15;0.73;;;0.70;;
12892;SDS011;6514;48.606;9.222;2024-02-14T13:15:42;0.70;;;0.70;;
12892;SDS011;6514;48.606;9.222;2024-02-14T13:18:09;0.70;;;0.67;;
12892;SDS011;6514;48.606;9.222;2024-02-14T13:20:37;0.50;;;0.50;;
12892;SDS011;6514;48.606;9.222;2024-02-14T13:23:09;0.53;;;0.53;;
12892;SDS011;6514;48.606;9.222;2024-02-14T13:25:39;0.60;;;0.60;;
12892;SDS011;6514;48.606;9.222;2024-02-14T13:28:07;0.60;;;0.50;;
12892;SDS011;6514;48.606;9.222;2024-02-14T13:30:36;2.40;;;0.70;;
12892;SDS011;6514;48.606;9.222;2024-02-14T13:33:03;0.93;;;0.90;;
12892;SDS011;6514;48.606;9.222;2024-02-14T13:35:30;1.20;;;0.63;;
12892;SDS011;6514;48.606;9.222;2024-02-14T13:38:02;1.43;;;0.90;;
12892;SDS011;6514;48.606;9.222;2024-02-14T13:40:30;1.80;;;0.90;;
12892;SDS011;6514;48.606;9.222;2024-02-14T13:42:57;1.40;;;0.83;;
12892;SDS011;6514;48.606;9.222;2024-02-14T13:45:25;0.87;;;0.80;;
12892;SDS011;6514;48.606;9.222;2024-02-14T13:48:01;0.93;;;0.70;;
12892;SDS011;6514;48.606;9.222;2024-02-14T13:50:30;0.80;;;0.70;;
12892;SDS011;6514;48.606;9.222;2024-02-14T13:52:56;0.60;;;0.60;;
12892;SDS011;6514;48.606;9.222;2024-02-14T13:55:23;0.97;;;0.73;;
12892;SDS011;6514;48.606;9.222;2024-02-14T13:57:51;0.50;;;0.50;;
12892;SDS011;6514;48.606;9.222;2024-02-14T14:00:17;0.50;;;0.50;;
12892;SDS011;6514;48.606;9.222;2024-02-14T14:02:45;0.47;;;0.47;;
12892;SDS011;6514;48.606;9.222;2024-02-14T14:05:13;0.70;;;0.50;;
12892;SDS011;6514;48.606;9.222;2024-02-14T14:07:40;0.60;;;0.60;;
12892;SDS011;6514;48.606;9.222;2024-02-14T14:10:08;0.60;;;0.60;;
12892;SDS011;6514;48.606;9.222;2024-02-14T14:12:35;1.47;;;0.60;;
12892;SDS011;6514;48.606;9.222;2024-02-14T14:15:03;0.80;;;0.80;;
12892;SDS011;6514;48.606;9.222;2024-02-14T14:17:31;0.70;;;0.70;;
12892;SDS011;6514;48.606;9.222;2024-02-14T14:19:58;0.60;;;0.60;;
12892;SDS011;6514;48.606;9.222;2024-02-14T14:22:30;0.77;;;0.77;;
12892;SDS011;6514;48.606;9.222;2024-02-14T14:24:57;0.60;;;0.60;;
12892;SDS011;6514;48.606;9.222;2024-02-14T14:27:24;0.60;;;0.60;;
12892;SDS011;6514;48.606;9.222;2024-02-14T14:29:50;0.50;;;0.50;;
12892;SDS011;6514;48.606;9.222;2024-02-14T14:32:16;3.03;;;1.00;;
12892;SDS011;6514;48.606;9.222;2024-02-14T14:34:43;3.53;;;0.90;;
12892;SDS011;6514;48.606;9.222;2024-02-14T14:37:10;1.87;;;0.90;;
12892;SDS011;6514;48.606;9.222;2024-02-14T14:39:38;1.40;;;0.63;;
12892;SDS011;6514;48.606;9.222;2024-02-14T14:42:06;0.80;;;0.80;;
12892;SDS011;6514;48.606;9.222;2024-02-14T14:44:33;0.97;;;0.97;;
12892;SDS011;6514;48.606;9.222;2024-02-14T14:47:04;2.40;;;1.23;;
12892;SDS011;6514;48.606;9.222;2024-02-14T14:49:32;2.77;;;2.20;;
12892;SDS011;6514;48.606;9.222;2024-02-14T14:51:59;3.93;;;3.50;;
12892;SDS011;6514;48.606;9.222;2024-02-14T14:54:29;2.20;;;1.80;;
12892;SDS011;6514;48.606;9.222;2024-02-14T14:56:57;2.10;;;1.70;;
12892;SDS011;6514;48.606;9.222;2024-02-14T14:59:24;1.60;;;1.50;;
12892;SDS011;6514;48.606;9.222;2024-02-14T15:01:51;1.93;;;1.20;;
12892;SDS011;6514;48.606;9.222;2024-02-14T15:04:19;1.63;;;1.40;;